sensor_id;sensor_type;location;lat;lon;timestamp;temperature;humidity
12043;DHT22;6082;49.306;12.862;2023-07-31T00:00:11;16.50;99.90
12043;DHT22;6082;49.306;12.862;2023-07-31T00:02:38;16.50;99.90
12043;DHT22;6082;49.306;12.862;2023-07-31T00:05:04;16.50;99.90
12043;DHT22;6082;49.306;12.862;2023-07-31T00:07:30;16.40;99.90
12043;DHT22;6082;49.306;12.862;2023-07-31T00:09:56;16.50;99.90
12043;DHT22;6082;49.306;12.862;2023-07-31T00:12:24;16.40;99.90
12043;DHT22;6082;49.306;12.862;2023-07-31T00:14:50;16.40;99.90
12043;DHT22;6082;49.306;12.862;2023-07-31T00:17:17;16.40;99.90
12043;DHT22;6082;49.306;12.862;2023-07-31T00:19:43;16.30;99.90
12043;DHT22;6082;49.306;12.862;2023-07-31T00:22:12;16.30;99.90
12043;DHT22;6082;49.306;12.862;2023-07-31T00:24:38;16.30;99.90
12043;DHT22;6082;49.306;12.862;2023-07-31T00:27:04;16.20;99.90
12043;DHT22;6082;49.306;12.862;2023-07-31T00:29:30;16.20;99.90
12043;DHT22;6082;49.306;12.862;2023-07-31T00:31:56;16.20;99.90
12043;DHT22;6082;49.306;12.862;2023-07-31T00:34:22;16.10;99.90
12043;DHT22;6082;49.306;12.862;2023-07-31T00:36:47;16.10;99.90
12043;DHT22;6082;49.306;12.862;2023-07-31T00:39:13;16.10;99.90
12043;DHT22;6082;49.306;12.862;2023-07-31T00:41:39;16.00;99.90
12043;DHT22;6082;49.306;12.862;2023-07-31T00:44:04;16.00;99.90
12043;DHT22;6082;49.306;12.862;2023-07-31T00:46:30;16.00;99.90
12043;DHT22;6082;49.306;12.862;2023-07-31T00:48:56;15.90;99.90
12043;DHT22;6082;49.306;12.862;2023-07-31T00:51:22;15.90;99.90
12043;DHT22;6082;49.306;12.862;2023-07-31T00:53:48;15.90;99.90
12043;DHT22;6082;49.306;12.862;2023-07-31T00:56:14;15.90;99.90
12043;DHT22;6082;49.306;12.862;2023-07-31T00:58:41;15.80;99.90
12043;DHT22;6082;49.306;12.862;2023-07-31T01:01:06;15.80;99.90
12043;DHT22;6082;49.306;12.862;2023-07-31T01:03:32;15.80;99.90
12043;DHT22;6082;49.306;12.862;2023-07-31T01:08:54;15.70;99.90
12043;DHT22;6082;49.306;12.862;2023-07-31T01:11:33;15.70;99.90
12043;DHT22;6082;49.306;12.862;2023-07-31T01:13:59;15.70;99.90
12043;DHT22;6082;49.306;12.862;2023-07-31T01:16:26;15.60;99.90
12043;DHT22;6082;49.306;12.862;2023-07-31T01:18:52;15.60;99.90
12043;DHT22;6082;49.306;12.862;2023-07-31T01:26:41;15.50;99.90
12043;DHT22;6082;49.306;12.862;2023-07-31T01:29:25;15.50;99.90
12043;DHT22;6082;49.306;12.862;2023-07-31T01:31:53;15.50;99.90
12043;DHT22;6082;49.306;12.862;2023-07-31T01:34:21;15.40;99.90
12043;DHT22;6082;49.306;12.862;2023-07-31T01:36:47;15.40;99.90
12043;DHT22;6082;49.306;12.862;2023-07-31T01:39:13;15.40;99.90
12043;DHT22;6082;49.306;12.862;2023-07-31T01:41:41;15.40;99.90
12043;DHT22;6082;49.306;12.862;2023-07-31T01:44:06;15.40;99.90
12043;DHT22;6082;49.306;12.862;2023-07-31T01:46:32;15.40;99.90
12043;DHT22;6082;49.306;12.862;2023-07-31T01:48:58;15.30;99.90
12043;DHT22;6082;49.306;12.862;2023-07-31T01:51:24;15.30;99.90
12043;DHT22;6082;49.306;12.862;2023-07-31T01:53:49;15.30;99.90
12043;DHT22;6082;49.306;12.862;2023-07-31T01:56:15;15.30;99.90
12043;DHT22;6082;49.306;12.862;2023-07-31T01:58:44;15.20;99.90
12043;DHT22;6082;49.306;12.862;2023-07-31T02:01:09;15.20;99.90
12043;DHT22;6082;49.306;12.862;2023-07-31T02:03:35;15.20;99.90
12043;DHT22;6082;49.306;12.862;2023-07-31T02:06:01;15.20;99.90
12043;DHT22;6082;49.306;12.862;2023-07-31T02:08:26;15.20;99.90
12043;DHT22;6082;49.306;12.862;2023-07-31T02:10:53;15.10;99.90
12043;DHT22;6082;49.306;12.862;2023-07-31T02:13:19;15.10;99.90
12043;DHT22;6082;49.306;12.862;2023-07-31T02:15:45;15.10;99.90
12043;DHT22;6082;49.306;12.862;2023-07-31T02:18:11;15.20;99.90
12043;DHT22;6082;49.306;12.862;2023-07-31T02:20:39;15.10;99.90
12043;DHT22;6082;49.306;12.862;2023-07-31T02:23:05;15.10;99.90
12043;DHT22;6082;49.306;12.862;2023-07-31T02:25:31;15.10;99.90
12043;DHT22;6082;49.306;12.862;2023-07-31T02:27:57;15.00;99.90
12043;DHT22;6082;49.306;12.862;2023-07-31T02:30:22;15.10;99.90
12043;DHT22;6082;49.306;12.862;2023-07-31T02:32:48;15.10;99.90
12043;DHT22;6082;49.306;12.862;2023-07-31T02:35:14;15.00;99.90
12043;DHT22;6082;49.306;12.862;2023-07-31T02:37:41;15.00;99.90
12043;DHT22;6082;49.306;12.862;2023-07-31T02:40:07;15.00;99.90
12043;DHT22;6082;49.306;12.862;2023-07-31T02:42:33;15.00;99.90
12043;DHT22;6082;49.306;12.862;2023-07-31T02:44:59;15.00;99.90
12043;DHT22;6082;49.306;12.862;2023-07-31T02:47:25;15.00;99.90
12043;DHT22;6082;49.306;12.862;2023-07-31T02:49:50;15.00;99.90
12043;DHT22;6082;49.306;12.862;2023-07-31T02:52:16;15.00;99.90
12043;DHT22;6082;49.306;12.862;2023-07-31T02:54:42;15.00;99.90
12043;DHT22;6082;49.306;12.862;2023-07-31T02:57:07;15.00;99.90
12043;DHT22;6082;49.306;12.862;2023-07-31T02:59:33;15.00;99.90
12043;DHT22;6082;49.306;12.862;2023-07-31T03:01:59;15.00;99.90
12043;DHT22;6082;49.306;12.862;2023-07-31T03:04:24;15.00;99.90
12043;DHT22;6082;49.306;12.862;2023-07-31T03:06:50;14.90;99.90
12043;DHT22;6082;49.306;12.862;2023-07-31T03:09:16;14.90;99.90
12043;DHT22;6082;49.306;12.862;2023-07-31T03:11:42;14.90;99.90
12043;DHT22;6082;49.306;12.862;2023-07-31T03:14:07;14.90;99.90
12043;DHT22;6082;49.306;12.862;2023-07-31T03:16:33;14.90;99.90
12043;DHT22;6082;49.306;12.862;2023-07-31T03:18:59;14.90;99.90
12043;DHT22;6082;49.306;12.862;2023-07-31T03:21:24;14.90;99.90
12043;DHT22;6082;49.306;12.862;2023-07-31T03:23:50;14.90;99.90
12043;DHT22;6082;49.306;12.862;2023-07-31T03:26:16;14.90;99.90
12043;DHT22;6082;49.306;12.862;2023-07-31T03:28:42;14.90;99.90
12043;DHT22;6082;49.306;12.862;2023-07-31T03:31:08;14.90;99.90
12043;DHT22;6082;49.306;12.862;2023-07-31T03:33:34;14.80;99.90
12043;DHT22;6082;49.306;12.862;2023-07-31T03:35:59;14.90;99.90
12043;DHT22;6082;49.306;12.862;2023-07-31T03:38:25;14.80;99.90
12043;DHT22;6082;49.306;12.862;2023-07-31T03:40:51;14.80;99.90
12043;DHT22;6082;49.306;12.862;2023-07-31T03:43:17;14.80;99.90
12043;DHT22;6082;49.306;12.862;2023-07-31T03:45:42;14.80;99.90
12043;DHT22;6082;49.306;12.862;2023-07-31T03:48:08;14.80;99.90
12043;DHT22;6082;49.306;12.862;2023-07-31T03:50:34;14.80;99.90
12043;DHT22;6082;49.306;12.862;2023-07-31T03:53:00;14.80;99.90
12043;DHT22;6082;49.306;12.862;2023-07-31T03:55:25;14.80;99.90
12043;DHT22;6082;49.306;12.862;2023-07-31T03:57:51;14.80;99.90
12043;DHT22;6082;49.306;12.862;2023-07-31T04:00:17;14.70;99.90
12043;DHT22;6082;49.306;12.862;2023-07-31T04:02:42;14.70;99.90
12043;DHT22;6082;49.306;12.862;2023-07-31T04:05:08;14.70;99.90
12043;DHT22;6082;49.306;12.862;2023-07-31T04:07:34;14.70;99.90
12043;DHT22;6082;49.306;12.862;2023-07-31T04:10:00;14.70;99.90
12043;DHT22;6082;49.306;12.862;2023-07-31T04:12:26;14.70;99.90
12043;DHT22;6082;49.306;12.862;2023-07-31T04:14:52;14.70;99.90
12043;DHT22;6082;49.306;12.862;2023-07-31T04:17:18;14.70;99.90
12043;DHT22;6082;49.306;12.862;2023-07-31T04:19:43;14.70;99.90
12043;DHT22;6082;49.306;12.862;2023-07-31T04:22:09;14.70;99.90
12043;DHT22;6082;49.306;12.862;2023-07-31T04:24:35;14.60;99.90
12043;DHT22;6082;49.306;12.862;2023-07-31T04:27:01;14.60;99.90
12043;DHT22;6082;49.306;12.862;2023-07-31T04:29:26;14.70;99.90
12043;DHT22;6082;49.306;12.862;2023-07-31T04:31:52;14.60;99.90
12043;DHT22;6082;49.306;12.862;2023-07-31T04:34:18;14.60;99.90
12043;DHT22;6082;49.306;12.862;2023-07-31T04:36:43;14.50;99.90
12043;DHT22;6082;49.306;12.862;2023-07-31T04:39:09;14.60;99.90
12043;DHT22;6082;49.306;12.862;2023-07-31T04:41:35;14.50;99.90
12043;DHT22;6082;49.306;12.862;2023-07-31T04:44:01;14.50;99.90
12043;DHT22;6082;49.306;12.862;2023-07-31T04:46:27;14.50;99.90
12043;DHT22;6082;49.306;12.862;2023-07-31T04:48:52;14.50;99.90
12043;DHT22;6082;49.306;12.862;2023-07-31T04:51:18;14.50;99.90
12043;DHT22;6082;49.306;12.862;2023-07-31T04:53:44;14.50;99.90
12043;DHT22;6082;49.306;12.862;2023-07-31T04:56:10;14.50;99.90
12043;DHT22;6082;49.306;12.862;2023-07-31T04:58:35;14.50;99.90
12043;DHT22;6082;49.306;12.862;2023-07-31T05:01:01;14.50;99.90
12043;DHT22;6082;49.306;12.862;2023-07-31T05:03:27;14.60;99.90
12043;DHT22;6082;49.306;12.862;2023-07-31T05:05:52;14.60;99.90
12043;DHT22;6082;49.306;12.862;2023-07-31T05:08:18;14.60;99.90
12043;DHT22;6082;49.306;12.862;2023-07-31T05:10:44;14.60;99.90
12043;DHT22;6082;49.306;12.862;2023-07-31T05:13:10;14.60;99.90
12043;DHT22;6082;49.306;12.862;2023-07-31T05:15:35;14.70;99.90
12043;DHT22;6082;49.306;12.862;2023-07-31T05:18:01;14.70;99.90
12043;DHT22;6082;49.306;12.862;2023-07-31T05:20:27;14.70;99.90
12043;DHT22;6082;49.306;12.862;2023-07-31T05:22:53;14.70;99.90
12043;DHT22;6082;49.306;12.862;2023-07-31T05:25:19;14.70;99.90
12043;DHT22;6082;49.306;12.862;2023-07-31T05:27:45;14.70;99.90
12043;DHT22;6082;49.306;12.862;2023-07-31T05:30:10;14.80;99.90
12043;DHT22;6082;49.306;12.862;2023-07-31T05:32:36;14.80;99.90
12043;DHT22;6082;49.306;12.862;2023-07-31T05:35:02;14.80;99.90
12043;DHT22;6082;49.306;12.862;2023-07-31T05:37:28;14.80;99.90
12043;DHT22;6082;49.306;12.862;2023-07-31T05:39:53;14.80;99.90
12043;DHT22;6082;49.306;12.862;2023-07-31T05:42:19;14.80;99.90
12043;DHT22;6082;49.306;12.862;2023-07-31T05:44:45;14.90;99.90
12043;DHT22;6082;49.306;12.862;2023-07-31T05:47:11;14.90;99.90
12043;DHT22;6082;49.306;12.862;2023-07-31T05:49:36;15.00;99.90
12043;DHT22;6082;49.306;12.862;2023-07-31T05:52:02;15.00;99.90
12043;DHT22;6082;49.306;12.862;2023-07-31T05:54:28;15.00;99.90
12043;DHT22;6082;49.306;12.862;2023-07-31T05:56:54;15.00;99.90
12043;DHT22;6082;49.306;12.862;2023-07-31T05:59:19;15.10;99.90
12043;DHT22;6082;49.306;12.862;2023-07-31T06:01:45;15.20;99.90
12043;DHT22;6082;49.306;12.862;2023-07-31T06:04:11;15.30;99.90
12043;DHT22;6082;49.306;12.862;2023-07-31T06:06:37;15.40;99.90
12043;DHT22;6082;49.306;12.862;2023-07-31T06:09:03;15.50;99.90
12043;DHT22;6082;49.306;12.862;2023-07-31T06:11:29;15.60;99.90
12043;DHT22;6082;49.306;12.862;2023-07-31T06:13:55;15.60;99.90
12043;DHT22;6082;49.306;12.862;2023-07-31T06:16:20;15.80;99.90
12043;DHT22;6082;49.306;12.862;2023-07-31T06:18:47;15.80;99.90
12043;DHT22;6082;49.306;12.862;2023-07-31T06:21:13;15.90;99.90
12043;DHT22;6082;49.306;12.862;2023-07-31T06:23:39;16.00;99.90
12043;DHT22;6082;49.306;12.862;2023-07-31T06:26:04;16.00;99.90
12043;DHT22;6082;49.306;12.862;2023-07-31T06:28:31;16.10;99.90
12043;DHT22;6082;49.306;12.862;2023-07-31T06:30:58;16.20;99.90
12043;DHT22;6082;49.306;12.862;2023-07-31T06:33:24;16.30;99.90
12043;DHT22;6082;49.306;12.862;2023-07-31T06:35:50;16.50;99.90
12043;DHT22;6082;49.306;12.862;2023-07-31T06:38:18;16.60;99.90
12043;DHT22;6082;49.306;12.862;2023-07-31T06:40:44;16.70;99.90
12043;DHT22;6082;49.306;12.862;2023-07-31T06:43:10;16.80;99.90
12043;DHT22;6082;49.306;12.862;2023-07-31T06:45:36;16.80;99.90
12043;DHT22;6082;49.306;12.862;2023-07-31T06:48:03;16.90;99.90
12043;DHT22;6082;49.306;12.862;2023-07-31T06:50:30;17.00;99.90
12043;DHT22;6082;49.306;12.862;2023-07-31T06:52:56;17.10;99.90
12043;DHT22;6082;49.306;12.862;2023-07-31T06:55:22;17.10;99.90
12043;DHT22;6082;49.306;12.862;2023-07-31T06:57:53;17.20;99.90
12043;DHT22;6082;49.306;12.862;2023-07-31T07:00:21;17.20;99.90
12043;DHT22;6082;49.306;12.862;2023-07-31T07:02:47;17.40;99.90
12043;DHT22;6082;49.306;12.862;2023-07-31T07:05:13;17.40;99.90
12043;DHT22;6082;49.306;12.862;2023-07-31T07:07:40;17.60;99.90
12043;DHT22;6082;49.306;12.862;2023-07-31T07:10:06;17.70;99.90
12043;DHT22;6082;49.306;12.862;2023-07-31T07:12:32;17.80;99.90
12043;DHT22;6082;49.306;12.862;2023-07-31T07:14:59;17.90;99.90
12043;DHT22;6082;49.306;12.862;2023-07-31T07:17:26;18.00;99.90
12043;DHT22;6082;49.306;12.862;2023-07-31T07:19:52;18.10;99.90
12043;DHT22;6082;49.306;12.862;2023-07-31T07:22:24;18.20;99.90
12043;DHT22;6082;49.306;12.862;2023-07-31T07:24:50;18.30;99.90
12043;DHT22;6082;49.306;12.862;2023-07-31T07:27:16;18.40;99.90
12043;DHT22;6082;49.306;12.862;2023-07-31T07:29:41;18.40;99.90
12043;DHT22;6082;49.306;12.862;2023-07-31T07:32:07;18.50;99.90
12043;DHT22;6082;49.306;12.862;2023-07-31T07:34:33;18.50;99.90
12043;DHT22;6082;49.306;12.862;2023-07-31T07:37:02;18.50;99.90
12043;DHT22;6082;49.306;12.862;2023-07-31T07:39:27;18.60;99.90
12043;DHT22;6082;49.306;12.862;2023-07-31T07:41:53;18.60;99.90
12043;DHT22;6082;49.306;12.862;2023-07-31T07:44:19;18.70;99.90
12043;DHT22;6082;49.306;12.862;2023-07-31T07:46:45;18.70;99.90
12043;DHT22;6082;49.306;12.862;2023-07-31T07:49:11;18.80;99.90
12043;DHT22;6082;49.306;12.862;2023-07-31T07:51:36;18.90;99.90
12043;DHT22;6082;49.306;12.862;2023-07-31T07:54:02;18.90;99.90
12043;DHT22;6082;49.306;12.862;2023-07-31T07:56:28;19.00;99.90
12043;DHT22;6082;49.306;12.862;2023-07-31T07:58:54;19.10;99.90
12043;DHT22;6082;49.306;12.862;2023-07-31T08:01:20;19.20;99.90
12043;DHT22;6082;49.306;12.862;2023-07-31T08:03:47;19.30;99.90
12043;DHT22;6082;49.306;12.862;2023-07-31T08:06:12;19.30;99.90
12043;DHT22;6082;49.306;12.862;2023-07-31T08:08:38;19.40;99.90
12043;DHT22;6082;49.306;12.862;2023-07-31T08:11:04;19.40;99.90
12043;DHT22;6082;49.306;12.862;2023-07-31T08:13:30;19.50;99.90
12043;DHT22;6082;49.306;12.862;2023-07-31T08:15:56;19.60;99.90
12043;DHT22;6082;49.306;12.862;2023-07-31T08:18:21;19.70;99.90
12043;DHT22;6082;49.306;12.862;2023-07-31T08:20:47;19.80;99.90
12043;DHT22;6082;49.306;12.862;2023-07-31T08:23:13;19.90;99.90
12043;DHT22;6082;49.306;12.862;2023-07-31T08:25:39;20.00;99.90
12043;DHT22;6082;49.306;12.862;2023-07-31T08:28:05;20.00;99.90
12043;DHT22;6082;49.306;12.862;2023-07-31T08:30:32;20.10;99.90
12043;DHT22;6082;49.306;12.862;2023-07-31T08:32:59;20.10;99.90
12043;DHT22;6082;49.306;12.862;2023-07-31T08:35:25;20.20;99.90
12043;DHT22;6082;49.306;12.862;2023-07-31T08:37:51;20.20;99.90
12043;DHT22;6082;49.306;12.862;2023-07-31T08:40:17;20.10;99.90
12043;DHT22;6082;49.306;12.862;2023-07-31T08:42:47;20.10;99.90
12043;DHT22;6082;49.306;12.862;2023-07-31T08:45:18;20.20;99.90
12043;DHT22;6082;49.306;12.862;2023-07-31T08:47:46;20.10;99.90
12043;DHT22;6082;49.306;12.862;2023-07-31T08:50:17;20.10;99.90
12043;DHT22;6082;49.306;12.862;2023-07-31T08:52:43;20.00;99.90
12043;DHT22;6082;49.306;12.862;2023-07-31T08:55:09;20.00;99.90
12043;DHT22;6082;49.306;12.862;2023-07-31T08:57:37;20.00;99.90
12043;DHT22;6082;49.306;12.862;2023-07-31T09:00:07;20.00;99.90
12043;DHT22;6082;49.306;12.862;2023-07-31T09:02:52;19.90;99.90
12043;DHT22;6082;49.306;12.862;2023-07-31T09:05:19;19.90;99.90
12043;DHT22;6082;49.306;12.862;2023-07-31T09:07:47;20.00;99.90
12043;DHT22;6082;49.306;12.862;2023-07-31T09:10:13;20.00;99.90
12043;DHT22;6082;49.306;12.862;2023-07-31T09:12:39;20.00;99.90
12043;DHT22;6082;49.306;12.862;2023-07-31T09:15:05;19.90;99.90
12043;DHT22;6082;49.306;12.862;2023-07-31T09:17:36;19.90;99.90
12043;DHT22;6082;49.306;12.862;2023-07-31T09:20:19;19.90;99.90
12043;DHT22;6082;49.306;12.862;2023-07-31T09:22:48;20.00;99.90
12043;DHT22;6082;49.306;12.862;2023-07-31T09:27:49;20.00;99.90
12043;DHT22;6082;49.306;12.862;2023-07-31T09:30:15;20.00;99.90
12043;DHT22;6082;49.306;12.862;2023-07-31T09:32:42;20.00;99.90
12043;DHT22;6082;49.306;12.862;2023-07-31T09:35:21;20.00;99.90
12043;DHT22;6082;49.306;12.862;2023-07-31T09:37:51;20.00;99.90
12043;DHT22;6082;49.306;12.862;2023-07-31T09:40:34;20.10;99.90
12043;DHT22;6082;49.306;12.862;2023-07-31T09:43:02;20.20;99.90
12043;DHT22;6082;49.306;12.862;2023-07-31T09:45:28;20.30;99.90
12043;DHT22;6082;49.306;12.862;2023-07-31T09:47:55;20.30;99.90
12043;DHT22;6082;49.306;12.862;2023-07-31T09:50:23;20.40;99.90
12043;DHT22;6082;49.306;12.862;2023-07-31T09:52:50;20.60;99.90
12043;DHT22;6082;49.306;12.862;2023-07-31T09:55:16;20.60;99.90
12043;DHT22;6082;49.306;12.862;2023-07-31T09:57:44;20.60;99.90
12043;DHT22;6082;49.306;12.862;2023-07-31T10:00:15;20.70;99.90
12043;DHT22;6082;49.306;12.862;2023-07-31T10:02:41;20.70;99.90
12043;DHT22;6082;49.306;12.862;2023-07-31T10:05:13;20.80;99.90
12043;DHT22;6082;49.306;12.862;2023-07-31T10:07:41;20.70;99.90
12043;DHT22;6082;49.306;12.862;2023-07-31T10:10:08;20.70;99.90
12043;DHT22;6082;49.306;12.862;2023-07-31T10:12:36;20.70;99.90
12043;DHT22;6082;49.306;12.862;2023-07-31T10:15:02;20.80;99.90
12043;DHT22;6082;49.306;12.862;2023-07-31T10:17:30;20.80;99.90
12043;DHT22;6082;49.306;12.862;2023-07-31T10:19:58;20.90;99.90
12043;DHT22;6082;49.306;12.862;2023-07-31T10:22:25;20.90;99.90
12043;DHT22;6082;49.306;12.862;2023-07-31T10:24:52;21.00;99.90
12043;DHT22;6082;49.306;12.862;2023-07-31T10:27:20;21.00;99.90
12043;DHT22;6082;49.306;12.862;2023-07-31T10:29:47;21.00;99.90
12043;DHT22;6082;49.306;12.862;2023-07-31T10:32:14;21.10;99.90
12043;DHT22;6082;49.306;12.862;2023-07-31T10:34:41;21.10;99.90
12043;DHT22;6082;49.306;12.862;2023-07-31T10:37:44;21.10;99.90
12043;DHT22;6082;49.306;12.862;2023-07-31T10:40:24;21.20;99.90
12043;DHT22;6082;49.306;12.862;2023-07-31T10:42:52;21.30;99.90
12043;DHT22;6082;49.306;12.862;2023-07-31T10:47:59;21.40;99.90
12043;DHT22;6082;49.306;12.862;2023-07-31T10:50:29;21.40;99.90
12043;DHT22;6082;49.306;12.862;2023-07-31T10:52:56;21.40;99.90
12043;DHT22;6082;49.306;12.862;2023-07-31T10:55:42;21.40;99.90
12043;DHT22;6082;49.306;12.862;2023-07-31T10:58:11;21.50;99.90
12043;DHT22;6082;49.306;12.862;2023-07-31T11:00:42;21.50;99.90
12043;DHT22;6082;49.306;12.862;2023-07-31T11:03:14;21.60;99.90
12043;DHT22;6082;49.306;12.862;2023-07-31T11:08:26;21.70;99.90
12043;DHT22;6082;49.306;12.862;2023-07-31T11:15:57;21.70;99.90
12043;DHT22;6082;49.306;12.862;2023-07-31T11:18:23;21.70;99.90
12043;DHT22;6082;49.306;12.862;2023-07-31T11:20:49;21.70;99.90
12043;DHT22;6082;49.306;12.862;2023-07-31T11:23:16;21.80;99.90
12043;DHT22;6082;49.306;12.862;2023-07-31T11:25:42;21.80;99.90
12043;DHT22;6082;49.306;12.862;2023-07-31T11:28:13;21.70;99.90
12043;DHT22;6082;49.306;12.862;2023-07-31T11:30:43;21.80;99.90
12043;DHT22;6082;49.306;12.862;2023-07-31T11:33:11;21.80;99.90
12043;DHT22;6082;49.306;12.862;2023-07-31T11:35:48;21.80;99.90
12043;DHT22;6082;49.306;12.862;2023-07-31T11:41:03;21.80;99.90
12043;DHT22;6082;49.306;12.862;2023-07-31T11:43:30;21.90;99.90
12043;DHT22;6082;49.306;12.862;2023-07-31T11:46:00;22.00;99.90
12043;DHT22;6082;49.306;12.862;2023-07-31T11:48:33;22.00;99.90
12043;DHT22;6082;49.306;12.862;2023-07-31T11:51:05;22.10;99.90
12043;DHT22;6082;49.306;12.862;2023-07-31T11:53:47;22.10;99.90
12043;DHT22;6082;49.306;12.862;2023-07-31T11:56:17;22.10;99.90
12043;DHT22;6082;49.306;12.862;2023-07-31T11:58:45;22.10;99.90
12043;DHT22;6082;49.306;12.862;2023-07-31T12:01:12;22.10;99.90
12043;DHT22;6082;49.306;12.862;2023-07-31T12:03:39;22.10;99.90
12043;DHT22;6082;49.306;12.862;2023-07-31T12:06:06;22.30;99.90
12043;DHT22;6082;49.306;12.862;2023-07-31T12:08:32;22.30;99.90
12043;DHT22;6082;49.306;12.862;2023-07-31T12:11:06;22.30;99.90
12043;DHT22;6082;49.306;12.862;2023-07-31T12:13:32;22.40;99.90
12043;DHT22;6082;49.306;12.862;2023-07-31T12:16:03;22.60;99.90
12043;DHT22;6082;49.306;12.862;2023-07-31T12:18:38;22.60;99.90
12043;DHT22;6082;49.306;12.862;2023-07-31T12:21:06;22.60;99.90
12043;DHT22;6082;49.306;12.862;2023-07-31T12:23:37;22.60;99.90
12043;DHT22;6082;49.306;12.862;2023-07-31T12:26:14;22.60;99.90
12043;DHT22;6082;49.306;12.862;2023-07-31T12:28:46;22.70;99.90
12043;DHT22;6082;49.306;12.862;2023-07-31T12:31:15;22.80;99.90
12043;DHT22;6082;49.306;12.862;2023-07-31T12:33:43;22.80;99.90
12043;DHT22;6082;49.306;12.862;2023-07-31T12:36:16;22.90;99.90
12043;DHT22;6082;49.306;12.862;2023-07-31T12:38:42;23.00;99.90
12043;DHT22;6082;49.306;12.862;2023-07-31T12:41:11;23.10;99.90
12043;DHT22;6082;49.306;12.862;2023-07-31T12:43:40;23.00;99.90
12043;DHT22;6082;49.306;12.862;2023-07-31T12:46:06;23.10;99.90
12043;DHT22;6082;49.306;12.862;2023-07-31T12:48:36;23.20;99.90
12043;DHT22;6082;49.306;12.862;2023-07-31T12:51:02;23.10;99.90
12043;DHT22;6082;49.306;12.862;2023-07-31T12:53:29;23.20;99.90
12043;DHT22;6082;49.306;12.862;2023-07-31T12:55:58;23.20;99.90
12043;DHT22;6082;49.306;12.862;2023-07-31T12:58:24;23.40;99.90
12043;DHT22;6082;49.306;12.862;2023-07-31T13:00:50;23.50;99.90
12043;DHT22;6082;49.306;12.862;2023-07-31T13:03:16;23.50;99.90
12043;DHT22;6082;49.306;12.862;2023-07-31T13:05:42;23.60;99.90
12043;DHT22;6082;49.306;12.862;2023-07-31T13:08:07;23.70;99.90
12043;DHT22;6082;49.306;12.862;2023-07-31T13:10:33;23.60;99.90
12043;DHT22;6082;49.306;12.862;2023-07-31T13:12:59;23.70;99.90
12043;DHT22;6082;49.306;12.862;2023-07-31T13:15:25;23.80;99.90
12043;DHT22;6082;49.306;12.862;2023-07-31T13:17:51;23.90;99.90
12043;DHT22;6082;49.306;12.862;2023-07-31T13:20:16;23.90;99.90
12043;DHT22;6082;49.306;12.862;2023-07-31T13:22:42;23.90;99.90
12043;DHT22;6082;49.306;12.862;2023-07-31T13:25:08;23.90;99.90
12043;DHT22;6082;49.306;12.862;2023-07-31T13:27:35;23.90;99.90
12043;DHT22;6082;49.306;12.862;2023-07-31T13:30:00;23.80;99.90
12043;DHT22;6082;49.306;12.862;2023-07-31T13:32:26;23.80;99.90
12043;DHT22;6082;49.306;12.862;2023-07-31T13:34:52;23.80;99.90
12043;DHT22;6082;49.306;12.862;2023-07-31T13:37:18;23.80;99.90
12043;DHT22;6082;49.306;12.862;2023-07-31T13:39:44;23.80;99.90
12043;DHT22;6082;49.306;12.862;2023-07-31T13:42:10;23.80;99.90
12043;DHT22;6082;49.306;12.862;2023-07-31T13:44:39;23.80;99.90
12043;DHT22;6082;49.306;12.862;2023-07-31T13:47:05;23.80;99.90
12043;DHT22;6082;49.306;12.862;2023-07-31T13:49:32;23.80;99.90
12043;DHT22;6082;49.306;12.862;2023-07-31T13:51:58;23.80;99.90
12043;DHT22;6082;49.306;12.862;2023-07-31T13:54:24;23.80;99.90
12043;DHT22;6082;49.306;12.862;2023-07-31T13:56:51;23.80;99.90
12043;DHT22;6082;49.306;12.862;2023-07-31T13:59:17;23.80;99.90
12043;DHT22;6082;49.306;12.862;2023-07-31T14:01:46;23.80;99.90
12043;DHT22;6082;49.306;12.862;2023-07-31T14:04:13;23.80;99.90
12043;DHT22;6082;49.306;12.862;2023-07-31T14:06:38;23.80;99.90
12043;DHT22;6082;49.306;12.862;2023-07-31T14:09:04;23.80;99.90
12043;DHT22;6082;49.306;12.862;2023-07-31T14:11:33;23.70;99.90
12043;DHT22;6082;49.306;12.862;2023-07-31T14:13:59;23.70;99.90
12043;DHT22;6082;49.306;12.862;2023-07-31T14:16:27;23.60;99.90
12043;DHT22;6082;49.306;12.862;2023-07-31T14:18:52;23.70;99.90
12043;DHT22;6082;49.306;12.862;2023-07-31T14:21:19;23.80;99.90
12043;DHT22;6082;49.306;12.862;2023-07-31T14:23:45;23.80;99.90
12043;DHT22;6082;49.306;12.862;2023-07-31T14:26:10;23.90;99.90
12043;DHT22;6082;49.306;12.862;2023-07-31T14:28:36;23.90;99.90
12043;DHT22;6082;49.306;12.862;2023-07-31T14:31:02;24.00;99.90
12043;DHT22;6082;49.306;12.862;2023-07-31T14:33:28;24.00;99.90
12043;DHT22;6082;49.306;12.862;2023-07-31T14:35:54;24.00;99.90
12043;DHT22;6082;49.306;12.862;2023-07-31T14:38:20;24.00;99.90
12043;DHT22;6082;49.306;12.862;2023-07-31T14:40:46;24.00;99.90
12043;DHT22;6082;49.306;12.862;2023-07-31T14:43:12;24.00;99.90
12043;DHT22;6082;49.306;12.862;2023-07-31T14:45:37;24.10;99.90
12043;DHT22;6082;49.306;12.862;2023-07-31T14:48:03;24.10;99.90
12043;DHT22;6082;49.306;12.862;2023-07-31T14:50:29;24.20;99.90
12043;DHT22;6082;49.306;12.862;2023-07-31T14:52:55;24.20;99.90
12043;DHT22;6082;49.306;12.862;2023-07-31T14:55:21;24.20;99.90
12043;DHT22;6082;49.306;12.862;2023-07-31T14:57:46;24.10;99.90
12043;DHT22;6082;49.306;12.862;2023-07-31T15:00:12;24.20;99.90
12043;DHT22;6082;49.306;12.862;2023-07-31T15:02:39;24.10;99.90
12043;DHT22;6082;49.306;12.862;2023-07-31T15:05:05;24.10;99.90
12043;DHT22;6082;49.306;12.862;2023-07-31T15:07:31;24.10;99.90
12043;DHT22;6082;49.306;12.862;2023-07-31T15:09:57;24.10;99.90
12043;DHT22;6082;49.306;12.862;2023-07-31T15:12:23;24.00;99.90
12043;DHT22;6082;49.306;12.862;2023-07-31T15:14:49;24.10;99.90
12043;DHT22;6082;49.306;12.862;2023-07-31T15:17:15;24.10;99.90
12043;DHT22;6082;49.306;12.862;2023-07-31T15:19:41;24.00;99.90
12043;DHT22;6082;49.306;12.862;2023-07-31T15:22:07;24.00;99.90
12043;DHT22;6082;49.306;12.862;2023-07-31T15:24:33;23.90;99.90
12043;DHT22;6082;49.306;12.862;2023-07-31T15:26:59;23.80;99.90
12043;DHT22;6082;49.306;12.862;2023-07-31T15:29:27;23.80;99.90
12043;DHT22;6082;49.306;12.862;2023-07-31T15:31:53;23.60;99.90
12043;DHT22;6082;49.306;12.862;2023-07-31T15:34:18;23.60;99.90
12043;DHT22;6082;49.306;12.862;2023-07-31T15:36:44;23.60;99.90
12043;DHT22;6082;49.306;12.862;2023-07-31T15:39:10;23.60;99.90
12043;DHT22;6082;49.306;12.862;2023-07-31T15:41:37;23.60;99.90
12043;DHT22;6082;49.306;12.862;2023-07-31T15:44:06;23.70;99.90
12043;DHT22;6082;49.306;12.862;2023-07-31T15:46:32;23.70;99.90
12043;DHT22;6082;49.306;12.862;2023-07-31T15:48:57;23.80;99.90
12043;DHT22;6082;49.306;12.862;2023-07-31T15:51:24;23.80;99.90